sensor_id;sensor_type;location;lat;lon;timestamp;pressure;altitude;pressure_sealevel;temperature;humidity
17209;BME280;8720;48.488;9.202;2024-02-23T00:00:02;95147.47;;;11.75;52.37
17209;BME280;8720;48.488;9.202;2024-02-23T00:02:31;95155.78;;;11.68;52.47
17209;BME280;8720;48.488;9.202;2024-02-23T00:04:59;95154.34;;;11.62;52.56
17209;BME280;8720;48.488;9.202;2024-02-23T00:07:26;95145.13;;;11.55;52.59
17209;BME280;8720;48.488;9.202;2024-02-23T00:09:53;95161.19;;;11.49;52.83
17209;BME280;8720;48.488;9.202;2024-02-23T00:12:22;95151.00;;;11.45;52.88
17209;BME280;8720;48.488;9.202;2024-02-23T00:14:49;95159.00;;;11.42;52.92
17209;BME280;8720;48.488;9.202;2024-02-23T00:17:17;95167.22;;;11.36;53.25
17209;BME280;8720;48.488;9.202;2024-02-23T00:19:45;95185.91;;;11.30;53.40
17209;BME280;8720;48.488;9.202;2024-02-23T00:22:13;95176.59;;;11.24;53.60
17209;BME280;8720;48.488;9.202;2024-02-23T00:24:40;95189.28;;;11.16;53.78
17209;BME280;8720;48.488;9.202;2024-02-23T00:27:08;95191.41;;;11.10;53.88
17209;BME280;8720;48.488;9.202;2024-02-23T00:29:36;95220.50;;;11.04;54.03
17209;BME280;8720;48.488;9.202;2024-02-23T00:32:05;95212.22;;;10.95;54.01
17209;BME280;8720;48.488;9.202;2024-02-23T00:34:32;95196.13;;;10.87;54.01
17209;BME280;8720;48.488;9.202;2024-02-23T00:37:00;95210.34;;;10.82;54.03
17209;BME280;8720;48.488;9.202;2024-02-23T00:39:28;95205.53;;;10.74;54.04
17209;BME280;8720;48.488;9.202;2024-02-23T00:41:55;95211.19;;;10.67;54.28
17209;BME280;8720;48.488;9.202;2024-02-23T00:44:22;95200.38;;;10.57;54.36
17209;BME280;8720;48.488;9.202;2024-02-23T00:46:51;95209.22;;;10.55;54.47
17209;BME280;8720;48.488;9.202;2024-02-23T00:49:18;95207.75;;;10.49;54.49
17209;BME280;8720;48.488;9.202;2024-02-23T00:51:46;95216.78;;;10.44;54.59
17209;BME280;8720;48.488;9.202;2024-02-23T00:54:13;95224.16;;;10.36;54.51
17209;BME280;8720;48.488;9.202;2024-02-23T00:56:40;95221.03;;;10.29;54.71
17209;BME280;8720;48.488;9.202;2024-02-23T00:59:08;95237.88;;;10.24;54.86
17209;BME280;8720;48.488;9.202;2024-02-23T01:01:35;95218.88;;;10.20;54.90
17209;BME280;8720;48.488;9.202;2024-02-23T01:04:04;95226.88;;;10.17;54.96
17209;BME280;8720;48.488;9.202;2024-02-23T01:06:31;95227.97;;;10.13;55.01
17209;BME280;8720;48.488;9.202;2024-02-23T01:08:58;95229.69;;;10.14;55.11
17209;BME280;8720;48.488;9.202;2024-02-23T01:11:26;95214.22;;;10.10;55.11
17209;BME280;8720;48.488;9.202;2024-02-23T01:13:53;95204.63;;;10.08;55.23
17209;BME280;8720;48.488;9.202;2024-02-23T01:16:20;95195.97;;;10.08;55.24
17209;BME280;8720;48.488;9.202;2024-02-23T01:18:48;95206.50;;;10.06;55.22
17209;BME280;8720;48.488;9.202;2024-02-23T01:21:16;95215.34;;;10.04;55.34
17209;BME280;8720;48.488;9.202;2024-02-23T01:23:44;95214.59;;;10.02;55.39
17209;BME280;8720;48.488;9.202;2024-02-23T01:26:11;95221.56;;;10.01;55.45
17209;BME280;8720;48.488;9.202;2024-02-23T01:28:39;95220.31;;;9.91;55.75
17209;BME280;8720;48.488;9.202;2024-02-23T01:31:08;95226.97;;;9.98;55.59
17209;BME280;8720;48.488;9.202;2024-02-23T01:33:37;95225.16;;;9.99;55.66
17209;BME280;8720;48.488;9.202;2024-02-23T01:36:05;95223.56;;;9.96;55.60
17209;BME280;8720;48.488;9.202;2024-02-23T01:38:34;95232.22;;;9.97;55.67
17209;BME280;8720;48.488;9.202;2024-02-23T01:41:02;95232.19;;;9.98;55.83
17209;BME280;8720;48.488;9.202;2024-02-23T01:43:30;95233.00;;;9.99;55.62
17209;BME280;8720;48.488;9.202;2024-02-23T01:45:57;95232.94;;;10.00;55.74
17209;BME280;8720;48.488;9.202;2024-02-23T01:48:25;95235.38;;;10.03;55.72
17209;BME280;8720;48.488;9.202;2024-02-23T01:50:54;95220.03;;;9.97;55.59
17209;BME280;8720;48.488;9.202;2024-02-23T01:53:23;95227.47;;;10.05;55.75
17209;BME280;8720;48.488;9.202;2024-02-23T01:55:54;95225.78;;;10.04;55.82
17209;BME280;8720;48.488;9.202;2024-02-23T01:58:22;95222.25;;;10.05;55.74
17209;BME280;8720;48.488;9.202;2024-02-23T02:00:49;95216.13;;;10.06;55.83
17209;BME280;8720;48.488;9.202;2024-02-23T02:03:16;95221.16;;;10.09;55.49
17209;BME280;8720;48.488;9.202;2024-02-23T02:05:44;95218.50;;;10.11;55.59
17209;BME280;8720;48.488;9.202;2024-02-23T02:08:12;95227.19;;;10.11;55.54
17209;BME280;8720;48.488;9.202;2024-02-23T02:10:39;95228.91;;;10.12;55.47
17209;BME280;8720;48.488;9.202;2024-02-23T02:13:09;95235.88;;;10.12;55.43
17209;BME280;8720;48.488;9.202;2024-02-23T02:15:37;95230.66;;;10.12;55.58
17209;BME280;8720;48.488;9.202;2024-02-23T02:18:05;95223.69;;;10.12;55.60
17209;BME280;8720;48.488;9.202;2024-02-23T02:20:33;95231.50;;;10.12;55.39
17209;BME280;8720;48.488;9.202;2024-02-23T02:23:02;95236.75;;;10.12;55.68
17209;BME280;8720;48.488;9.202;2024-02-23T02:25:30;95218.44;;;10.12;55.75
17209;BME280;8720;48.488;9.202;2024-02-23T02:27:57;95220.28;;;10.10;55.67
17209;BME280;8720;48.488;9.202;2024-02-23T02:30:26;95223.34;;;10.18;55.71
17209;BME280;8720;48.488;9.202;2024-02-23T02:32:53;95215.38;;;10.21;55.70
17209;BME280;8720;48.488;9.202;2024-02-23T02:35:21;95213.50;;;10.23;55.66
17209;BME280;8720;48.488;9.202;2024-02-23T02:37:48;95221.28;;;10.25;55.64
17209;BME280;8720;48.488;9.202;2024-02-23T02:40:15;95217.75;;;10.26;55.46
17209;BME280;8720;48.488;9.202;2024-02-23T02:42:43;95221.94;;;10.28;55.48
17209;BME280;8720;48.488;9.202;2024-02-23T02:45:10;95212.25;;;10.30;55.48
17209;BME280;8720;48.488;9.202;2024-02-23T02:47:39;95214.75;;;10.33;55.32
17209;BME280;8720;48.488;9.202;2024-02-23T02:50:06;95206.81;;;10.35;55.35
17209;BME280;8720;48.488;9.202;2024-02-23T02:52:34;95215.50;;;10.35;55.26
17209;BME280;8720;48.488;9.202;2024-02-23T02:55:01;95218.88;;;10.37;55.27
17209;BME280;8720;48.488;9.202;2024-02-23T02:57:28;95210.09;;;10.38;55.25
17209;BME280;8720;48.488;9.202;2024-02-23T02:59:56;95203.97;;;10.39;55.02
17209;BME280;8720;48.488;9.202;2024-02-23T03:02:23;95210.00;;;10.40;55.15
17209;BME280;8720;48.488;9.202;2024-02-23T03:04:52;95207.41;;;10.40;54.92
17209;BME280;8720;48.488;9.202;2024-02-23T03:07:21;95207.41;;;10.40;55.01
17209;BME280;8720;48.488;9.202;2024-02-23T03:09:48;95203.97;;;10.39;54.87
17209;BME280;8720;48.488;9.202;2024-02-23T03:12:17;95197.81;;;10.40;54.72
17209;BME280;8720;48.488;9.202;2024-02-23T03:14:44;95195.09;;;10.42;54.69
17209;BME280;8720;48.488;9.202;2024-02-23T03:17:12;95202.94;;;10.42;54.63
17209;BME280;8720;48.488;9.202;2024-02-23T03:19:39;95201.00;;;10.45;54.53
17209;BME280;8720;48.488;9.202;2024-02-23T03:22:08;95186.25;;;10.44;54.34
17209;BME280;8720;48.488;9.202;2024-02-23T03:24:35;95176.88;;;10.40;54.08
17209;BME280;8720;48.488;9.202;2024-02-23T03:27:03;95188.78;;;10.46;54.02
17209;BME280;8720;48.488;9.202;2024-02-23T03:29:30;95199.16;;;10.47;54.05
17209;BME280;8720;48.488;9.202;2024-02-23T03:31:58;95203.56;;;10.47;54.03
17209;BME280;8720;48.488;9.202;2024-02-23T03:34:27;95207.00;;;10.47;53.98
17209;BME280;8720;48.488;9.202;2024-02-23T03:36:54;95193.94;;;10.47;53.90
17209;BME280;8720;48.488;9.202;2024-02-23T03:39:23;95203.63;;;10.45;53.75
17209;BME280;8720;48.488;9.202;2024-02-23T03:41:51;95220.00;;;10.49;53.76
17209;BME280;8720;48.488;9.202;2024-02-23T03:44:18;95214.94;;;10.46;53.60
17209;BME280;8720;48.488;9.202;2024-02-23T03:46:45;95216.94;;;10.41;53.60
17209;BME280;8720;48.488;9.202;2024-02-23T03:49:13;95216.53;;;10.48;53.57
17209;BME280;8720;48.488;9.202;2024-02-23T03:51:40;95200.84;;;10.48;53.54
17209;BME280;8720;48.488;9.202;2024-02-23T03:54:07;95199.16;;;10.47;53.41
17209;BME280;8720;48.488;9.202;2024-02-23T03:56:40;95182.03;;;10.42;53.52
17209;BME280;8720;48.488;9.202;2024-02-23T03:59:08;95204.38;;;10.47;53.40
17209;BME280;8720;48.488;9.202;2024-02-23T04:01:36;95192.41;;;10.43;53.38
17209;BME280;8720;48.488;9.202;2024-02-23T04:04:04;95205.16;;;10.49;53.33
17209;BME280;8720;48.488;9.202;2024-02-23T04:06:33;95205.16;;;10.49;53.02
17209;BME280;8720;48.488;9.202;2024-02-23T04:09:00;95181.03;;;10.44;53.24
17209;BME280;8720;48.488;9.202;2024-02-23T04:11:30;95194.69;;;10.49;53.21
17209;BME280;8720;48.488;9.202;2024-02-23T04:13:59;95202.53;;;10.49;53.13
17209;BME280;8720;48.488;9.202;2024-02-23T04:16:27;95207.72;;;10.51;53.21
17209;BME280;8720;48.488;9.202;2024-02-23T04:18:54;95203.31;;;10.51;53.03
17209;BME280;8720;48.488;9.202;2024-02-23T04:21:23;95194.63;;;10.51;53.06
17209;BME280;8720;48.488;9.202;2024-02-23T04:23:50;95183.31;;;10.50;53.15
17209;BME280;8720;48.488;9.202;2024-02-23T04:26:18;95181.63;;;10.49;53.06
17209;BME280;8720;48.488;9.202;2024-02-23T04:28:45;95181.63;;;10.49;53.23
17209;BME280;8720;48.488;9.202;2024-02-23T04:31:14;95179.94;;;10.48;53.00
17209;BME280;8720;48.488;9.202;2024-02-23T04:33:41;95186.44;;;10.41;52.65
17209;BME280;8720;48.488;9.202;2024-02-23T04:36:08;95178.25;;;10.47;53.02
17209;BME280;8720;48.488;9.202;2024-02-23T04:38:36;95179.19;;;10.46;52.97
17209;BME280;8720;48.488;9.202;2024-02-23T04:41:04;95171.56;;;10.42;52.86
17209;BME280;8720;48.488;9.202;2024-02-23T04:43:33;95176.56;;;10.46;52.91
17209;BME280;8720;48.488;9.202;2024-02-23T04:46:00;95175.03;;;10.42;53.01
17209;BME280;8720;48.488;9.202;2024-02-23T04:48:29;95193.16;;;10.45;52.90
17209;BME280;8720;48.488;9.202;2024-02-23T04:50:57;95183.72;;;10.43;52.89
17209;BME280;8720;48.488;9.202;2024-02-23T04:53:25;95181.78;;;10.46;52.84
17209;BME280;8720;48.488;9.202;2024-02-23T04:55:52;95176.47;;;10.48;53.02
17209;BME280;8720;48.488;9.202;2024-02-23T04:58:19;95176.56;;;10.46;52.73
17209;BME280;8720;48.488;9.202;2024-02-23T05:00:51;95187.78;;;10.48;52.81
17209;BME280;8720;48.488;9.202;2024-02-23T05:03:19;95188.78;;;10.46;52.59
17209;BME280;8720;48.488;9.202;2024-02-23T05:05:48;95189.72;;;10.45;52.69
17209;BME280;8720;48.488;9.202;2024-02-23T05:08:19;95188.88;;;10.44;52.60
17209;BME280;8720;48.488;9.202;2024-02-23T05:10:47;95199.56;;;10.40;52.67
17209;BME280;8720;48.488;9.202;2024-02-23T05:13:14;95202.19;;;10.40;52.67
17209;BME280;8720;48.488;9.202;2024-02-23T05:15:42;95214.47;;;10.38;52.70
17209;BME280;8720;48.488;9.202;2024-02-23T05:18:09;95206.22;;;10.30;52.65
17209;BME280;8720;48.488;9.202;2024-02-23T05:20:36;95217.19;;;10.36;52.87
17209;BME280;8720;48.488;9.202;2024-02-23T05:23:05;95210.34;;;10.34;52.66
17209;BME280;8720;48.488;9.202;2024-02-23T05:25:32;95196.06;;;10.24;52.74
17209;BME280;8720;48.488;9.202;2024-02-23T05:28:00;95218.34;;;10.31;52.71
17209;BME280;8720;48.488;9.202;2024-02-23T05:30:27;95218.25;;;10.32;52.68
17209;BME280;8720;48.488;9.202;2024-02-23T05:32:57;95218.25;;;10.32;52.69
17209;BME280;8720;48.488;9.202;2024-02-23T05:35:25;95214.75;;;10.33;52.71
17209;BME280;8720;48.488;9.202;2024-02-23T05:37:53;95217.25;;;10.35;52.53
17209;BME280;8720;48.488;9.202;2024-02-23T05:40:22;95213.97;;;10.31;52.86
17209;BME280;8720;48.488;9.202;2024-02-23T05:42:49;95231.19;;;10.35;52.38
17209;BME280;8720;48.488;9.202;2024-02-23T05:45:17;95224.25;;;10.34;52.52
17209;BME280;8720;48.488;9.202;2024-02-23T05:47:45;95233.84;;;10.34;52.34
17209;BME280;8720;48.488;9.202;2024-02-23T05:50:12;95224.66;;;10.27;52.51
17209;BME280;8720;48.488;9.202;2024-02-23T05:52:39;95233.03;;;10.33;52.31
17209;BME280;8720;48.488;9.202;2024-02-23T05:55:08;95241.78;;;10.32;52.35
17209;BME280;8720;48.488;9.202;2024-02-23T05:57:36;95240.94;;;10.32;52.29
17209;BME280;8720;48.488;9.202;2024-02-23T06:00:05;95242.84;;;10.28;52.17
17209;BME280;8720;48.488;9.202;2024-02-23T06:02:39;95237.72;;;10.27;52.15
17209;BME280;8720;48.488;9.202;2024-02-23T06:05:07;95246.53;;;10.24;52.28
17209;BME280;8720;48.488;9.202;2024-02-23T06:07:35;95257.16;;;10.21;52.24
17209;BME280;8720;48.488;9.202;2024-02-23T06:10:03;95265.09;;;10.20;52.13
17209;BME280;8720;48.488;9.202;2024-02-23T06:12:31;95261.78;;;10.16;52.00
17209;BME280;8720;48.488;9.202;2024-02-23T06:15:00;95265.16;;;10.18;51.98
17209;BME280;8720;48.488;9.202;2024-02-23T06:17:27;95264.31;;;10.18;52.09
17209;BME280;8720;48.488;9.202;2024-02-23T06:19:54;95256.72;;;10.13;52.03
17209;BME280;8720;48.488;9.202;2024-02-23T06:22:23;95258.31;;;10.16;51.84
17209;BME280;8720;48.488;9.202;2024-02-23T06:24:51;95250.56;;;10.14;51.76
17209;BME280;8720;48.488;9.202;2024-02-23T06:27:19;95248.88;;;10.13;51.80
17209;BME280;8720;48.488;9.202;2024-02-23T06:29:48;95238.41;;;10.13;51.78
17209;BME280;8720;48.488;9.202;2024-02-23T06:32:17;95244.69;;;10.43;49.75
17209;BME280;8720;48.488;9.202;2024-02-23T06:34:44;95233.53;;;10.40;50.39
17209;BME280;8720;48.488;9.202;2024-02-23T06:37:12;95233.03;;;10.33;50.78
17209;BME280;8720;48.488;9.202;2024-02-23T06:39:39;95240.09;;;10.31;50.88
17209;BME280;8720;48.488;9.202;2024-02-23T06:42:07;95237.50;;;10.31;50.85
17209;BME280;8720;48.488;9.202;2024-02-23T06:44:34;95243.41;;;10.35;50.94
17209;BME280;8720;48.488;9.202;2024-02-23T06:47:02;95244.16;;;10.37;50.94
17209;BME280;8720;48.488;9.202;2024-02-23T06:49:31;95246.59;;;10.40;50.79
17209;BME280;8720;48.488;9.202;2024-02-23T06:51:58;95239.63;;;10.40;50.74
17209;BME280;8720;48.488;9.202;2024-02-23T06:54:25;95238.63;;;10.43;50.82
17209;BME280;8720;48.488;9.202;2024-02-23T06:56:52;95239.31;;;10.46;50.80
17209;BME280;8720;48.488;9.202;2024-02-23T06:59:20;95246.22;;;10.47;50.76
17209;BME280;8720;48.488;9.202;2024-02-23T07:01:50;95239.13;;;10.49;50.82
17209;BME280;8720;48.488;9.202;2024-02-23T07:04:18;95248.69;;;10.50;50.71
17209;BME280;8720;48.488;9.202;2024-02-23T07:06:47;95251.13;;;10.53;50.70
17209;BME280;8720;48.488;9.202;2024-02-23T07:09:14;95255.44;;;10.54;50.56
17209;BME280;8720;48.488;9.202;2024-02-23T07:11:41;95250.13;;;10.56;50.52
17209;BME280;8720;48.488;9.202;2024-02-23T07:14:09;95263.19;;;10.56;50.57
17209;BME280;8720;48.488;9.202;2024-02-23T07:16:39;95253.91;;;10.50;50.45
17209;BME280;8720;48.488;9.202;2024-02-23T07:19:07;95260.75;;;10.53;50.33
17209;BME280;8720;48.488;9.202;2024-02-23T07:21:35;95264.06;;;10.56;50.39
17209;BME280;8720;48.488;9.202;2024-02-23T07:24:05;95270.88;;;10.59;50.32
17209;BME280;8720;48.488;9.202;2024-02-23T07:26:32;95274.19;;;10.62;50.26
17209;BME280;8720;48.488;9.202;2024-02-23T07:29:00;95270.66;;;10.63;50.12
17209;BME280;8720;48.488;9.202;2024-02-23T07:31:27;95280.09;;;10.66;50.01
17209;BME280;8720;48.488;9.202;2024-02-23T07:33:55;95275.66;;;10.68;50.06
17209;BME280;8720;48.488;9.202;2024-02-23T07:36:22;95277.09;;;10.73;50.07
17209;BME280;8720;48.488;9.202;2024-02-23T07:38:49;95277.69;;;10.78;50.08
17209;BME280;8720;48.488;9.202;2024-02-23T07:41:18;95277.38;;;10.84;49.87
17209;BME280;8720;48.488;9.202;2024-02-23T07:43:45;95282.38;;;10.89;49.98
17209;BME280;8720;48.488;9.202;2024-02-23T07:46:13;95281.09;;;10.96;49.90
17209;BME280;8720;48.488;9.202;2024-02-23T07:48:40;95271.31;;;10.99;49.70
17209;BME280;8720;48.488;9.202;2024-02-23T07:51:07;95276.13;;;11.07;49.72
17209;BME280;8720;48.488;9.202;2024-02-23T07:53:35;95274.91;;;11.14;49.56
17209;BME280;8720;48.488;9.202;2024-02-23T07:56:03;95271.19;;;11.18;49.49
17209;BME280;8720;48.488;9.202;2024-02-23T07:58:32;95270.00;;;11.24;49.26
17209;BME280;8720;48.488;9.202;2024-02-23T08:00:59;95265.44;;;11.27;49.31
17209;BME280;8720;48.488;9.202;2024-02-23T08:03:26;95265.25;;;11.30;49.14
17209;BME280;8720;48.488;9.202;2024-02-23T08:05:53;95261.63;;;11.33;49.05
17209;BME280;8720;48.488;9.202;2024-02-23T08:08:21;95255.41;;;11.35;48.87
17209;BME280;8720;48.488;9.202;2024-02-23T08:10:50;95263.06;;;11.38;48.81
17209;BME280;8720;48.488;9.202;2024-02-23T08:13:17;95273.38;;;11.41;48.63
17209;BME280;8720;48.488;9.202;2024-02-23T08:15:46;95283.78;;;11.43;48.68
17209;BME280;8720;48.488;9.202;2024-02-23T08:18:13;95291.53;;;11.44;48.68
17209;BME280;8720;48.488;9.202;2024-02-23T08:20:41;95294.81;;;11.48;48.54
17209;BME280;8720;48.488;9.202;2024-02-23T08:23:08;95288.59;;;11.50;48.60
17209;BME280;8720;48.488;9.202;2024-02-23T08:25:37;95289.34;;;11.52;48.33
17209;BME280;8720;48.488;9.202;2024-02-23T08:28:05;95293.59;;;11.55;48.24
17209;BME280;8720;48.488;9.202;2024-02-23T08:30:33;95293.31;;;11.59;48.13
17209;BME280;8720;48.488;9.202;2024-02-23T08:33:02;95290.28;;;11.67;48.27
17209;BME280;8720;48.488;9.202;2024-02-23T08:35:30;95295.19;;;11.73;48.21
17209;BME280;8720;48.488;9.202;2024-02-23T08:37:58;95299.19;;;11.80;48.28
17209;BME280;8720;48.488;9.202;2024-02-23T08:40:26;95284.88;;;11.85;47.98
17209;BME280;8720;48.488;9.202;2024-02-23T08:42:53;95288.94;;;11.91;47.96
17209;BME280;8720;48.488;9.202;2024-02-23T08:45:21;95280.88;;;11.94;47.90
17209;BME280;8720;48.488;9.202;2024-02-23T08:47:49;95286.72;;;11.99;47.73
17209;BME280;8720;48.488;9.202;2024-02-23T08:50:18;95278.56;;;12.04;47.55
17209;BME280;8720;48.488;9.202;2024-02-23T08:52:45;95283.56;;;12.08;47.53
17209;BME280;8720;48.488;9.202;2024-02-23T08:55:13;95286.00;;;12.11;47.40
17209;BME280;8720;48.488;9.202;2024-02-23T08:57:40;95290.13;;;12.15;47.42
17209;BME280;8720;48.488;9.202;2024-02-23T09:00:10;95289.03;;;12.19;47.47
17209;BME280;8720;48.488;9.202;2024-02-23T09:02:38;95291.38;;;12.24;47.38
17209;BME280;8720;48.488;9.202;2024-02-23T09:05:06;95296.38;;;12.28;47.50
17209;BME280;8720;48.488;9.202;2024-02-23T09:07:35;95289.31;;;12.29;47.39
17209;BME280;8720;48.488;9.202;2024-02-23T09:10:04;95286.81;;;12.27;47.18
17209;BME280;8720;48.488;9.202;2024-02-23T09:12:31;95289.31;;;12.29;47.29
17209;BME280;8720;48.488;9.202;2024-02-23T09:14:59;95285.78;;;12.30;47.38
17209;BME280;8720;48.488;9.202;2024-02-23T09:17:26;95286.44;;;12.33;47.23
17209;BME280;8720;48.488;9.202;2024-02-23T09:19:53;95291.25;;;12.41;47.30
17209;BME280;8720;48.488;9.202;2024-02-23T09:22:21;95285.06;;;12.42;47.40
17209;BME280;8720;48.488;9.202;2024-02-23T09:24:50;95286.19;;;12.52;47.07
17209;BME280;8720;48.488;9.202;2024-02-23T09:27:20;95293.81;;;12.56;46.89
17209;BME280;8720;48.488;9.202;2024-02-23T09:29:47;95287.63;;;12.57;46.61
17209;BME280;8720;48.488;9.202;2024-02-23T09:32:15;95290.06;;;12.60;46.63
17209;BME280;8720;48.488;9.202;2024-02-23T09:34:42;95287.34;;;12.62;46.49
17209;BME280;8720;48.488;9.202;2024-02-23T09:37:10;95297.47;;;12.68;46.68
17209;BME280;8720;48.488;9.202;2024-02-23T09:39:37;95288.41;;;12.73;46.37
17209;BME280;8720;48.488;9.202;2024-02-23T09:42:10;95286.44;;;12.77;46.26
17209;BME280;8720;48.488;9.202;2024-02-23T09:44:38;95296.47;;;12.85;45.92
17209;BME280;8720;48.488;9.202;2024-02-23T09:47:07;95271.75;;;12.74;45.90
17209;BME280;8720;48.488;9.202;2024-02-23T09:49:39;95301.19;;;12.94;45.69
17209;BME280;8720;48.488;9.202;2024-02-23T09:52:08;95301.84;;;12.97;45.86
17209;BME280;8720;48.488;9.202;2024-02-23T09:54:37;95303.22;;;13.03;45.34
17209;BME280;8720;48.488;9.202;2024-02-23T09:57:08;95300.44;;;13.06;45.39
17209;BME280;8720;48.488;9.202;2024-02-23T09:59:36;95299.22;;;13.11;45.54
17209;BME280;8720;48.488;9.202;2024-02-23T10:02:08;95304.19;;;13.16;45.20
17209;BME280;8720;48.488;9.202;2024-02-23T10:04:37;95310.03;;;13.21;45.14
17209;BME280;8720;48.488;9.202;2024-02-23T10:07:06;95305.44;;;13.24;45.37
17209;BME280;8720;48.488;9.202;2024-02-23T10:09:33;95308.44;;;13.32;45.15
17209;BME280;8720;48.488;9.202;2024-02-23T10:12:01;95317.59;;;13.39;45.09
17209;BME280;8720;48.488;9.202;2024-02-23T10:14:30;95315.53;;;13.44;45.07
17209;BME280;8720;48.488;9.202;2024-02-23T10:16:58;95321.16;;;13.52;44.83
17209;BME280;8720;48.488;9.202;2024-02-23T10:19:26;95317.28;;;13.58;44.84
17209;BME280;8720;48.488;9.202;2024-02-23T10:21:55;95313.44;;;13.63;44.62
17209;BME280;8720;48.488;9.202;2024-02-23T10:24:24;95297.38;;;13.68;44.55
17209;BME280;8720;48.488;9.202;2024-02-23T10:26:52;95299.72;;;13.73;44.38
17209;BME280;8720;48.488;9.202;2024-02-23T10:29:19;95304.66;;;13.77;44.47
17209;BME280;8720;48.488;9.202;2024-02-23T10:31:49;95303.44;;;13.83;43.87
17209;BME280;8720;48.488;9.202;2024-02-23T10:34:20;95303.44;;;13.83;43.94
17209;BME280;8720;48.488;9.202;2024-02-23T10:36:47;95305.50;;;13.92;44.09
17209;BME280;8720;48.488;9.202;2024-02-23T10:39:18;95295.50;;;13.97;43.67
17209;BME280;8720;48.488;9.202;2024-02-23T10:41:55;95309.28;;;14.00;43.74
17209;BME280;8720;48.488;9.202;2024-02-23T10:44:24;95293.63;;;13.99;43.70
17209;BME280;8720;48.488;9.202;2024-02-23T10:46:55;95304.28;;;14.10;43.81
17209;BME280;8720;48.488;9.202;2024-02-23T10:49:25;95305.59;;;14.17;43.53
17209;BME280;8720;48.488;9.202;2024-02-23T10:51:54;95292.78;;;14.25;43.33
17209;BME280;8720;48.488;9.202;2024-02-23T10:54:22;95298.50;;;14.31;43.37
17209;BME280;8720;48.488;9.202;2024-02-23T10:56:51;95282.94;;;14.28;43.00
17209;BME280;8720;48.488;9.202;2024-02-23T10:59:19;95297.88;;;14.40;43.35
17209;BME280;8720;48.488;9.202;2024-02-23T11:01:51;95293.19;;;14.45;42.92
17209;BME280;8720;48.488;9.202;2024-02-23T11:04:22;95301.06;;;14.45;42.57
17209;BME280;8720;48.488;9.202;2024-02-23T11:06:50;95294.84;;;14.46;42.76
17209;BME280;8720;48.488;9.202;2024-02-23T11:09:21;95288.66;;;14.47;42.94
17209;BME280;8720;48.488;9.202;2024-02-23T11:11:54;95290.53;;;14.45;43.11
17209;BME280;8720;48.488;9.202;2024-02-23T11:14:32;95283.59;;;14.44;43.16
17209;BME280;8720;48.488;9.202;2024-02-23T11:17:00;95281.91;;;14.43;42.92
17209;BME280;8720;48.488;9.202;2024-02-23T11:19:38;95288.22;;;14.41;42.97
17209;BME280;8720;48.488;9.202;2024-02-23T11:22:10;95281.47;;;14.37;43.06
17209;BME280;8720;48.488;9.202;2024-02-23T11:24:43;95291.34;;;14.33;42.94
17209;BME280;8720;48.488;9.202;2024-02-23T11:27:15;95284.78;;;14.26;42.89
17209;BME280;8720;48.488;9.202;2024-02-23T11:29:46;95277.47;;;14.17;42.91
17209;BME280;8720;48.488;9.202;2024-02-23T11:32:16;95283.34;;;14.08;43.06
17209;BME280;8720;48.488;9.202;2024-02-23T11:34:56;95279.44;;;14.01;42.97
17209;BME280;8720;48.488;9.202;2024-02-23T11:37:23;95285.00;;;13.97;43.25
17209;BME280;8720;48.488;9.202;2024-02-23T11:39:51;95282.56;;;13.94;43.30
17209;BME280;8720;48.488;9.202;2024-02-23T11:42:20;95284.25;;;13.95;43.45
17209;BME280;8720;48.488;9.202;2024-02-23T11:44:52;95281.44;;;13.98;43.61
17209;BME280;8720;48.488;9.202;2024-02-23T11:47:20;95288.19;;;14.02;43.64
17209;BME280;8720;48.488;9.202;2024-02-23T11:49:48;95287.22;;;14.03;43.57
17209;BME280;8720;48.488;9.202;2024-02-23T11:52:17;95280.47;;;13.99;43.31
17209;BME280;8720;48.488;9.202;2024-02-23T11:54:45;95280.59;;;13.97;43.61
17209;BME280;8720;48.488;9.202;2024-02-23T11:57:12;95284.88;;;13.98;43.49
17209;BME280;8720;48.488;9.202;2024-02-23T11:59:40;95273.34;;;14.01;43.71
17209;BME280;8720;48.488;9.202;2024-02-23T12:02:08;95269.97;;;13.99;43.88
17209;BME280;8720;48.488;9.202;2024-02-23T12:04:35;95266.41;;;14.00;43.69
17209;BME280;8720;48.488;9.202;2024-02-23T12:07:04;95252.94;;;14.04;43.67
17209;BME280;8720;48.488;9.202;2024-02-23T12:09:33;95250.03;;;14.09;43.76
17209;BME280;8720;48.488;9.202;2024-02-23T12:12:00;95255.06;;;14.12;43.69
17209;BME280;8720;48.488;9.202;2024-02-23T12:14:28;95256.56;;;14.16;43.76
17209;BME280;8720;48.488;9.202;2024-02-23T12:16:57;95252.88;;;14.18;43.79
17209;BME280;8720;48.488;9.202;2024-02-23T12:19:25;95251.75;;;14.22;43.84
17209;BME280;8720;48.488;9.202;2024-02-23T12:21:52;95255.00;;;14.26;43.86
17209;BME280;8720;48.488;9.202;2024-02-23T12:24:20;95256.41;;;14.31;43.51
17209;BME280;8720;48.488;9.202;2024-02-23T12:26:55;95260.53;;;14.35;43.51
17209;BME280;8720;48.488;9.202;2024-02-23T12:29:22;95258.53;;;14.39;43.51
17209;BME280;8720;48.488;9.202;2024-02-23T12:31:50;95249.59;;;14.41;43.13
17209;BME280;8720;48.488;9.202;2024-02-23T12:34:18;95258.97;;;14.45;43.38
17209;BME280;8720;48.488;9.202;2024-02-23T12:36:46;95244.66;;;14.49;43.37
17209;BME280;8720;48.488;9.202;2024-02-23T12:39:14;95234.88;;;14.51;43.15
17209;BME280;8720;48.488;9.202;2024-02-23T12:41:41;95238.25;;;14.53;43.17
17209;BME280;8720;48.488;9.202;2024-02-23T12:44:10;95240.66;;;14.56;43.00
17209;BME280;8720;48.488;9.202;2024-02-23T12:46:38;95233.63;;;14.57;43.13
17209;BME280;8720;48.488;9.202;2024-02-23T12:49:06;95230.13;;;14.56;43.25
17209;BME280;8720;48.488;9.202;2024-02-23T12:51:33;95232.78;;;14.56;43.08
17209;BME280;8720;48.488;9.202;2024-02-23T12:54:01;95236.38;;;14.55;42.94
17209;BME280;8720;48.488;9.202;2024-02-23T12:56:29;95234.66;;;14.54;42.95
17209;BME280;8720;48.488;9.202;2024-02-23T12:58:56;95235.41;;;14.56;43.00
17209;BME280;8720;48.488;9.202;2024-02-23T13:01:25;95236.03;;;14.60;43.13
17209;BME280;8720;48.488;9.202;2024-02-23T13:03:53;95239.63;;;14.59;42.94
17209;BME280;8720;48.488;9.202;2024-02-23T13:06:20;95235.22;;;14.60;42.84
17209;BME280;8720;48.488;9.202;2024-02-23T13:08:48;95237.00;;;14.59;42.87
17209;BME280;8720;48.488;9.202;2024-02-23T13:11:16;95238.66;;;14.60;42.50
17209;BME280;8720;48.488;9.202;2024-02-23T13:13:43;95242.16;;;14.61;42.91
17209;BME280;8720;48.488;9.202;2024-02-23T13:16:10;95242.25;;;14.59;42.52